This is the latest recevied weather packets stored in our database for station/object KC1ELF. If no packets are shown the sender has not sent any weather packets the latest 1 day(s).
| Time | Temp. | Humidity | Pressure | Rain* | Wind** | Luminosity | Snow |
|---|---|---|---|---|---|---|---|
| 1836274468 | 13.89° C | 63% | 1020.7 hPa | 0 mm | 0.45 m/s, 86° | - | - |
| 1836274319 | 13.89° C | 63% | 1020.7 hPa | 0 mm | 0.45 m/s, 85° | - | - |
| 1836273869 | 14.44° C | 62% | 1020.4 hPa | 0 mm | 0.45 m/s, 76° | - | - |
| 1778050896 | 17.22° C | 68% | 1009 hPa | 0 mm | 0.89 m/s, 257° | - | - |
| 1778050298 | 17.22° C | 67% | 1008.9 hPa | 0 mm | 2.68 m/s, 261° | - | - |
| 1778049696 | 17.22° C | 67% | 1008.7 hPa | 0 mm | 1.34 m/s, 219° | - | - |
| 1778049096 | 17.78° C | 66% | 1008.7 hPa | 0 mm | 1.34 m/s, 300° | - | - |
| 1778048496 | 17.78° C | 66% | 1008.7 hPa | 0 mm | 1.79 m/s, 267° | - | - |
| 1778047898 | 17.22° C | 65% | 1008.9 hPa | 0 mm | 1.34 m/s, 281° | - | - |
| 1778047298 | 17.78° C | 65% | 1008.7 hPa | 0 mm | 0.45 m/s, 311° | - | - |
| 1778046695 | 17.78° C | 65% | 1008.9 hPa | 0 mm | 1.34 m/s, 62° | - | - |
| 1778046095 | 17.22° C | 66% | 1009 hPa | 0 mm | 1.34 m/s, 176° | - | - |
| 1778045495 | 17.22° C | 65% | 1009.1 hPa | 0 mm | 0.89 m/s, 262° | - | - |
| 1778044895 | 17.22° C | 65% | 1009.3 hPa | 0 mm | 1.34 m/s, 271° | - | - |
| 1778044295 | 17.22° C | 65% | 1009.1 hPa | 0 mm | 1.34 m/s, 322° | - | - |
| 1778043695 | 17.22° C | 64% | 1009.4 hPa | 0 mm | 1.34 m/s, 275° | - | - |
| 1778043095 | 17.22° C | 64% | 1009.5 hPa | 0 mm | 0.89 m/s, 180° | - | - |
| 1778042495 | 17.78° C | 64% | 1009.4 hPa | 0 mm | 1.34 m/s, 257° | - | - |
| 1778041897 | 17.78° C | 64% | 1009.4 hPa | 0 mm | 2.24 m/s, 294° | - | - |
| 1778041295 | 17.78° C | 63% | 1009.5 hPa | 0 mm | 1.79 m/s, 278° | - | - |
| 1778040695 | 17.78° C | 62% | 1009.5 hPa | 0 mm | 1.34 m/s, 253° | - | - |
| 1778040095 | 17.78° C | 62% | 1009.5 hPa | 0 mm | 0.89 m/s, 279° | - | - |
| 1778039495 | 17.78° C | 61% | 1009.5 hPa | 0 mm | 1.34 m/s, 306° | - | - |
| 1778038895 | 18.33° C | 60% | 1009.4 hPa | 0 mm | 1.34 m/s, 259° | - | - |
| 1778038296 | 18.33° C | 60% | 1009.5 hPa | 0 mm | 2.24 m/s, 253° | - | - |
* Rain latest hour (hover to see other rain measurements)
** Current wind speed in m/s (hover to see current wind gust speed)